Time;durP1;ratioP1;P1;durP2;ratioP2;P2;SDS_P1;SDS_P2;PMS_P1;PMS_P2;Temp;Humidity;BMP_temperature;BMP_pressure;BME280_temperature;BME280_humidity;BME280_pressure;Samples;Min_cycle;Max_cycle;Signal;HPM_P1;HPM_P2
2021/04/20 00:00:31;;;;;;;7.25;4.72;;;;;;;;;;5092979;28;20031;-67
2021/04/20 00:02:57;;;;;;;8.88;4.93;;;;;;;;;;5092849;28;20028;-67
2021/04/20 00:05:23;;;;;;;8.02;4.95;;;;;;;;;;5093139;28;20078;-68
2021/04/20 00:07:50;;;;;;;8.05;4.25;;;;;;;;;;5092847;28;20111;-67
2021/04/20 00:10:18;;;;;;;7.63;4.15;;;;;;;;;;5092718;28;20023;-67
2021/04/20 00:12:44;;;;;;;7.90;4.00;;;;;;;;;;5092939;28;20028;-67
2021/04/20 00:15:12;;;;;;;6.28;3.55;;;;;;;;;;5092810;28;20526;-67
2021/04/20 00:17:38;;;;;;;7.40;4.18;;;;;;;;;;5092358;28;20061;-67
2021/04/20 00:20:07;;;;;;;7.18;3.58;;;;;;;;;;5092733;28;20020;-67
2021/04/20 00:22:33;;;;;;;7.43;3.95;;;;;;;;;;5074597;28;20035;-67
2021/04/20 00:24:59;;;;;;;6.00;3.40;;;;;;;;;;5092309;28;20373;-67
2021/04/20 00:27:26;;;;;;;5.65;3.45;;;;;;;;;;5074223;28;20048;-67
2021/04/20 00:29:52;;;;;;;6.50;3.80;;;;;;;;;;5092752;28;20023;-67
2021/04/20 00:32:18;;;;;;;9.27;3.92;;;;;;;;;;5074231;28;20387;-67
2021/04/20 00:34:44;;;;;;;5.57;3.40;;;;;;;;;;5074501;28;20017;-67
2021/04/20 00:37:10;;;;;;;6.78;3.78;;;;;;;;;;5074431;28;20496;-67
2021/04/20 00:39:38;;;;;;;7.25;3.90;;;;;;;;;;5092066;28;20225;-67
2021/04/20 00:42:05;;;;;;;6.75;3.53;;;;;;;;;;5074436;28;20052;-67
2021/04/20 00:44:32;;;;;;;5.63;3.22;;;;;;;;;;5092499;28;20030;-67
2021/04/20 00:46:58;;;;;;;5.60;2.97;;;;;;;;;;5091961;28;20020;-67
2021/04/20 00:49:25;;;;;;;6.32;3.70;;;;;;;;;;5094650;28;20451;-67
2021/04/20 00:51:52;;;;;;;7.80;4.40;;;;;;;;;;5096726;28;20436;-67
2021/04/20 00:54:18;;;;;;;6.43;3.22;;;;;;;;;;5096124;28;20032;-67
2021/04/20 00:56:45;;;;;;;8.98;4.10;;;;;;;;;;5096406;28;20358;-67
2021/04/20 00:59:11;;;;;;;7.63;3.80;;;;;;;;;;5096224;28;20468;-67
2021/04/20 01:01:38;;;;;;;7.40;3.67;;;;;;;;;;5096304;28;20496;-67
2021/04/20 01:04:04;;;;;;;8.30;4.50;;;;;;;;;;5096210;28;20488;-67
2021/04/20 01:06:31;;;;;;;6.80;3.83;;;;;;;;;;5077587;28;20024;-67
2021/04/20 01:08:57;;;;;;;6.70;3.83;;;;;;;;;;5096087;28;20040;-67
2021/04/20 01:11:24;;;;;;;8.65;4.68;;;;;;;;;;5096379;28;20020;-67
2021/04/20 01:13:50;;;;;;;8.57;4.45;;;;;;;;;;5095789;28;20016;-67
2021/04/20 01:16:19;;;;;;;8.35;4.57;;;;;;;;;;5096037;28;20024;-67
2021/04/20 01:18:45;;;;;;;10.07;4.53;;;;;;;;;;5095988;28;20149;-67
2021/04/20 01:21:13;;;;;;;11.50;5.28;;;;;;;;;;5077362;28;20505;-67
2021/04/20 01:23:47;;;;;;;9.15;5.28;;;;;;;;;;5095946;28;20133;-67
2021/04/20 01:26:14;;;;;;;9.40;5.15;;;;;;;;;;5077704;28;20028;-67
2021/04/20 01:28:40;;;;;;;7.47;4.53;;;;;;;;;;5095271;28;20052;-67
2021/04/20 01:31:07;;;;;;;8.85;5.32;;;;;;;;;;5095925;28;20031;-67
2021/04/20 01:33:33;;;;;;;8.25;4.32;;;;;;;;;;5095807;28;20074;-67
2021/04/20 01:35:59;;;;;;;7.63;4.68;;;;;;;;;;5095358;28;20043;-67
2021/04/20 01:38:29;;;;;;;9.98;5.40;;;;;;;;;;5095658;28;20027;-67
2021/04/20 01:40:55;;;;;;;8.90;5.28;;;;;;;;;;5095628;28;20025;-67
2021/04/20 01:43:21;;;;;;;10.55;5.50;;;;;;;;;;5095147;28;20107;-67
2021/04/20 01:45:48;;;;;;;11.40;5.75;;;;;;;;;;5077169;28;20446;-67
2021/04/20 01:48:14;;;;;;;10.70;5.97;;;;;;;;;;5077215;28;20043;-67
2021/04/20 01:50:41;;;;;;;9.93;4.72;;;;;;;;;;5095515;28;20023;-67
2021/04/20 01:53:08;;;;;;;8.75;5.13;;;;;;;;;;5077321;28;20028;-67
2021/04/20 01:55:34;;;;;;;9.60;5.38;;;;;;;;;;5094824;28;20480;-67
2021/04/20 01:58:02;;;;;;;7.55;4.47;;;;;;;;;;5077160;28;20040;-67
2021/04/20 02:00:29;;;;;;;7.15;4.53;;;;;;;;;;5094756;28;20046;-67
2021/04/20 02:02:55;;;;;;;9.30;5.90;;;;;;;;;;5094755;28;20024;-67
2021/04/20 02:05:21;;;;;;;7.80;4.35;;;;;;;;;;5076909;28;20027;-67
2021/04/20 02:07:48;;;;;;;8.65;5.15;;;;;;;;;;5076899;28;20059;-67
2021/04/20 02:10:14;;;;;;;8.77;5.20;;;;;;;;;;5094863;28;20472;-67
2021/04/20 02:12:41;;;;;;;10.35;5.38;;;;;;;;;;5076964;28;20053;-67
2021/04/20 02:15:09;;;;;;;9.05;5.30;;;;;;;;;;5094972;28;20031;-67
2021/04/20 02:17:36;;;;;;;9.20;5.60;;;;;;;;;;5094547;28;20052;-67
2021/04/20 02:20:05;;;;;;;7.35;4.93;;;;;;;;;;5094937;28;20028;-67
2021/04/20 02:22:34;;;;;;;8.50;5.72;;;;;;;;;;5094857;28;20026;-67
2021/04/20 02:25:00;;;;;;;11.15;5.72;;;;;;;;;;5094377;28;20118;-67
2021/04/20 02:27:27;;;;;;;12.10;6.35;;;;;;;;;;5094451;28;20075;-67
2021/04/20 02:29:54;;;;;;;10.55;6.72;;;;;;;;;;5094791;28;20532;-67
2021/04/20 02:32:20;;;;;;;10.43;6.55;;;;;;;;;;5094344;28;20105;-67
2021/04/20 02:34:46;;;;;;;12.73;6.32;;;;;;;;;;5076444;28;20028;-67
2021/04/20 02:37:17;;;;;;;9.95;5.82;;;;;;;;;;5076383;28;20024;-67
2021/04/20 02:39:43;;;;;;;13.15;6.65;;;;;;;;;;5075990;28;20044;-67
2021/04/20 02:42:09;;;;;;;9.50;6.13;;;;;;;;;;5094443;28;20052;-67
2021/04/20 02:44:35;;;;;;;10.70;6.53;;;;;;;;;;5094668;28;20073;-67
2021/04/20 02:47:04;;;;;;;11.57;6.55;;;;;;;;;;5075771;28;20430;-67
2021/04/20 02:49:31;;;;;;;10.50;6.22;;;;;;;;;;5076206;28;20024;-67
2021/04/20 02:51:57;;;;;;;11.73;6.82;;;;;;;;;;5094404;28;20016;-67
2021/04/20 02:54:23;;;;;;;9.02;6.07;;;;;;;;;;5094164;28;20043;-67
2021/04/20 02:56:50;;;;;;;10.35;6.82;;;;;;;;;;5076037;28;20020;-67
2021/04/20 02:59:16;;;;;;;10.27;6.35;;;;;;;;;;5093728;28;20053;-67
2021/04/20 03:01:43;;;;;;;9.40;6.63;;;;;;;;;;5094036;28;20492;-67
2021/04/20 03:04:17;;;;;;;10.85;6.97;;;;;;;;;;5093962;28;20020;-67
2021/04/20 03:06:43;;;;;;;11.35;6.82;;;;;;;;;;5075344;28;20544;-67
2021/04/20 03:09:10;;;;;;;14.77;6.28;;;;;;;;;;5075806;28;20054;-67
2021/04/20 03:11:40;;;;;;;11.38;7.60;;;;;;;;;;5093291;28;20028;-67
2021/04/20 03:14:07;;;;;;;13.00;7.25;;;;;;;;;;5075205;28;20032;-67
2021/04/20 03:16:37;;;;;;;12.82;6.38;;;;;;;;;;5094053;28;20031;-67
2021/04/20 03:19:04;;;;;;;11.57;7.25;;;;;;;;;;5093683;28;20370;-67
2021/04/20 03:21:30;;;;;;;13.07;6.82;;;;;;;;;;5093385;28;20027;-67
2021/04/20 03:23:57;;;;;;;10.65;6.15;;;;;;;;;;5093625;28;20046;-67
2021/04/20 03:26:26;;;;;;;9.07;6.25;;;;;;;;;;5075250;28;20051;-67
2021/04/20 03:28:53;;;;;;;10.88;7.13;;;;;;;;;;5074924;28;20044;-67
2021/04/20 03:31:19;;;;;;;12.07;7.35;;;;;;;;;;5093568;28;20028;-67
2021/04/20 03:33:47;;;;;;;11.77;7.40;;;;;;;;;;5093461;28;20020;-67
2021/04/20 03:36:22;;;;;;;11.65;6.93;;;;;;;;;;5093372;28;20035;-67
2021/04/20 03:39:00;;;;;;;9.10;5.75;;;;;;;;;;5075208;28;20028;-67
2021/04/20 03:41:47;;;;;;;10.55;6.68;;;;;;;;;;5092908;28;20035;-67
2021/04/20 03:44:15;;;;;;;11.73;7.32;;;;;;;;;;5093356;28;20024;-67
2021/04/20 03:46:44;;;;;;;9.63;6.43;;;;;;;;;;5093224;28;20024;-67
2021/04/20 03:49:14;;;;;;;10.30;6.65;;;;;;;;;;5092771;28;20024;-67
2021/04/20 03:51:42;;;;;;;10.75;6.95;;;;;;;;;;5075283;28;20357;-68
2021/04/20 03:54:09;;;;;;;10.30;7.25;;;;;;;;;;5074996;28;20028;-67
2021/04/20 03:56:36;;;;;;;10.68;6.15;;;;;;;;;;5092609;28;20027;-67
2021/04/20 03:59:05;;;;;;;11.68;6.85;;;;;;;;;;5093152;28;20062;-67
2021/04/20 04:01:38;;;;;;;9.63;6.15;;;;;;;;;;5093000;28;20024;-67
2021/04/20 04:04:04;;;;;;;;;;;;;;;;;;5074834;28;20472;-67
2021/04/20 04:06:30;;;;;;;11.57;7.28;;;;;;;;;;5093011;28;19904;-67
2021/04/20 04:08:57;;;;;;;11.88;7.50;;;;;;;;;;5092887;28;20047;-67
2021/04/20 04:11:24;;;;;;;14.13;7.85;;;;;;;;;;5074564;28;20047;-67
2021/04/20 04:13:50;;;;;;;10.75;6.80;;;;;;;;;;5074909;28;20433;-67
2021/04/20 04:16:19;;;;;;;10.85;6.50;;;;;;;;;;5092448;28;20122;-67
2021/04/20 04:18:50;;;;;;;11.30;5.97;;;;;;;;;;5074678;28;20110;-67
2021/04/20 04:21:21;;;;;;;11.35;7.53;;;;;;;;;;5074713;28;20024;-67
2021/04/20 04:23:48;;;;;;;11.98;7.47;;;;;;;;;;5092295;28;20353;-67
2021/04/20 04:26:24;;;;;;;13.35;8.27;;;;;;;;;;5074470;28;20047;-68
2021/04/20 04:28:53;;;;;;;13.50;8.93;;;;;;;;;;5092599;28;20541;-67
2021/04/20 04:31:19;;;;;;;13.68;10.05;;;;;;;;;;5092525;28;20032;-67
2021/04/20 04:33:46;;;;;;;11.55;7.05;;;;;;;;;;5092735;28;20051;-67
2021/04/20 04:36:14;;;;;;;14.32;8.52;;;;;;;;;;5092546;28;20020;-67
2021/04/20 04:38:41;;;;;;;14.27;8.65;;;;;;;;;;5092249;28;20052;-67
2021/04/20 04:41:07;;;;;;;14.50;7.97;;;;;;;;;;5092554;28;20024;-67
2021/04/20 04:43:35;;;;;;;15.27;9.93;;;;;;;;;;5092521;28;20020;-67
2021/04/20 04:46:01;;;;;;;18.48;11.70;;;;;;;;;;5092185;28;20024;-67
2021/04/20 04:48:28;;;;;;;19.98;12.63;;;;;;;;;;5074187;28;20082;-67
2021/04/20 04:50:55;;;;;;;18.95;10.80;;;;;;;;;;5074496;28;20020;-67
2021/04/20 04:53:22;;;;;;;15.63;9.35;;;;;;;;;;5074109;28;20480;-67
2021/04/20 04:55:48;;;;;;;15.18;9.55;;;;;;;;;;5092421;28;20020;-67
2021/04/20 04:58:15;;;;;;;13.98;7.75;;;;;;;;;;5074265;28;20024;-68
2021/04/20 05:00:42;;;;;;;12.18;6.97;;;;;;;;;;5091935;28;20385;-69
2021/04/20 05:03:08;;;;;;;10.50;6.53;;;;;;;;;;5087253;28;20016;-70
2021/04/20 05:05:39;;;;;;;14.27;8.30;;;;;;;;;;5090950;28;20380;-70
2021/04/20 05:08:06;;;;;;;15.20;11.13;;;;;;;;;;5107813;28;20024;-68
2021/04/20 05:10:32;;;;;;;19.52;12.73;;;;;;;;;;5093548;28;20031;-68
2021/04/20 05:13:00;;;;;;;15.95;9.80;;;;;;;;;;5112003;28;20028;-68
2021/04/20 05:15:27;;;;;;;16.83;11.07;;;;;;;;;;5112282;28;20058;-69
2021/04/20 05:17:53;;;;;;;17.80;10.38;;;;;;;;;;5094155;28;20365;-69
2021/04/20 05:20:20;;;;;;;19.88;13.25;;;;;;;;;;5111715;28;20081;-71
2021/04/20 05:22:50;;;;;;;20.02;12.35;;;;;;;;;;5082016;28;20029;-69
2021/04/20 05:25:18;;;;;;;31.83;18.95;;;;;;;;;;5071611;28;20373;-70
2021/04/20 05:27:45;;;;;;;50.55;24.60;;;;;;;;;;5071243;28;20558;-69
2021/04/20 05:30:12;;;;;;;26.83;14.80;;;;;;;;;;5053733;28;20029;-70
2021/04/20 05:32:41;;;;;;;22.77;15.77;;;;;;;;;;5071360;28;20099;-70
2021/04/20 05:35:09;;;;;;;16.45;11.52;;;;;;;;;;5080434;28;20119;-69
2021/04/20 05:37:37;;;;;;;17.65;11.85;;;;;;;;;;5095586;28;20024;-69
2021/04/20 05:40:05;;;;;;;20.48;12.68;;;;;;;;;;5077257;28;20495;-69
2021/04/20 05:42:31;;;;;;;27.60;13.80;;;;;;;;;;5075829;28;20483;-69
2021/04/20 05:44:58;;;;;;;21.05;11.60;;;;;;;;;;5095370;28;20028;-69
2021/04/20 05:47:25;;;;;;;20.92;11.35;;;;;;;;;;5076500;28;20028;-69
2021/04/20 05:49:56;;;;;;;13.13;8.07;;;;;;;;;;5093898;28;20028;-69
2021/04/20 05:52:22;;;;;;;16.45;11.40;;;;;;;;;;5095086;28;20024;-69
2021/04/20 05:54:49;;;;;;;22.45;13.05;;;;;;;;;;5084070;28;20537;-68
2021/04/20 05:57:17;;;;;;;25.40;16.08;;;;;;;;;;5074784;28;20032;-67
2021/04/20 05:59:46;;;;;;;18.02;10.40;;;;;;;;;;5074955;28;20099;-68
2021/04/20 06:02:13;;;;;;;18.92;12.43;;;;;;;;;;5074371;28;20024;-67
2021/04/20 06:04:40;;;;;;;20.10;11.75;;;;;;;;;;5074631;28;20024;-67
2021/04/20 06:07:08;;;;;;;23.95;14.73;;;;;;;;;;5074758;28;20032;-67
2021/04/20 06:09:34;;;;;;;16.52;10.45;;;;;;;;;;5056506;28;20032;-67
2021/04/20 06:12:00;;;;;;;19.90;12.95;;;;;;;;;;5074713;28;20020;-67
2021/04/20 06:14:27;;;;;;;16.98;10.57;;;;;;;;;;5077003;28;20040;-66
2021/04/20 06:16:53;;;;;;;17.10;9.55;;;;;;;;;;5075962;28;20020;-67
2021/04/20 06:19:19;;;;;;;13.95;9.02;;;;;;;;;;5069274;28;20059;-68
2021/04/20 06:21:47;;;;;;;16.42;10.10;;;;;;;;;;5084521;28;20050;-67
2021/04/20 06:24:14;;;;;;;15.45;9.95;;;;;;;;;;5082651;28;20058;-67
2021/04/20 06:26:41;;;;;;;20.02;12.10;;;;;;;;;;5075864;28;20484;-68
2021/04/20 06:29:07;;;;;;;28.02;17.75;;;;;;;;;;5074132;28;20032;-68
2021/04/20 06:31:34;;;;;;;26.40;15.27;;;;;;;;;;5073805;28;20020;-69
2021/04/20 06:34:01;;;;;;;22.45;13.57;;;;;;;;;;5073626;28;20032;-68
2021/04/20 06:36:28;;;;;;;23.17;15.30;;;;;;;;;;5055976;28;20017;-68
2021/04/20 06:38:54;;;;;;;20.95;14.45;;;;;;;;;;5055501;28;20131;-67
2021/04/20 06:41:23;;;;;;;17.55;10.48;;;;;;;;;;5074103;28;20027;-68
2021/04/20 06:43:54;;;;;;;15.95;9.27;;;;;;;;;;5081564;28;20105;-68
2021/04/20 06:46:33;;;;;;;15.25;9.88;;;;;;;;;;5067118;28;20044;-67
2021/04/20 06:49:05;;;;;;;19.05;10.95;;;;;;;;;;5084157;28;20036;-68
2021/04/20 06:51:40;;;;;;;14.20;9.77;;;;;;;;;;5073645;28;20020;-67
2021/04/20 06:54:14;;;;;;;20.38;12.98;;;;;;;;;;5073534;28;20103;-68
2021/04/20 06:56:41;;;;;;;17.02;11.30;;;;;;;;;;5055619;28;20052;-67
2021/04/20 06:59:18;;;;;;;22.27;12.80;;;;;;;;;;5085072;28;20349;-68
2021/04/20 07:01:45;;;;;;;23.25;11.68;;;;;;;;;;5094028;28;20044;-68
2021/04/20 07:07:54;;;;;;;19.98;11.43;;;;;;;;;;5110431;27;20895;-66
2021/04/20 07:10:34;;;;;;;18.65;11.63;;;;;;;;;;5110509;28;20070;-66
2021/04/20 07:15:37;;;;;;;19.58;13.25;;;;;;;;;;5110319;27;20438;-67
2021/04/20 07:18:06;;;;;;;22.30;12.30;;;;;;;;;;5109609;28;20015;-67
2021/04/20 07:20:37;;;;;;;17.73;11.73;;;;;;;;;;5108476;28;20059;-68
2021/04/20 07:25:01;;;;;;;17.05;11.18;;;;;;;;;;5110100;27;20457;-68
2021/04/20 07:27:27;;;;;;;;;;;;;;;;;;5110323;28;20028;-68
2021/04/20 07:29:53;;;;;;;18.75;12.70;;;;;;;;;;5110347;28;19999;-68
2021/04/20 07:32:47;;;;;;;21.83;14.85;;;;;;;;;;5110107;28;20023;-68
2021/04/20 07:36:09;;;;;;;23.05;12.75;;;;;;;;;;5108780;27;20381;-69
2021/04/20 07:38:55;;;;;;;15.85;11.13;;;;;;;;;;5108180;28;20094;-70
2021/04/20 07:41:24;;;;;;;16.45;10.43;;;;;;;;;;5107858;28;20539;-71
2021/04/20 07:49:44;;;;;;;25.27;16.77;;;;;;;;;;5067454;28;20956;-70
2021/04/20 07:52:13;;;;;;;25.17;15.50;;;;;;;;;;5067021;28;20036;-68
2021/04/20 07:54:43;;;;;;;17.25;10.40;;;;;;;;;;5069180;28;20475;-68
2021/04/20 07:57:15;;;;;;;20.17;10.55;;;;;;;;;;5068014;28;20035;-68
2021/04/20 08:01:41;;;;;;;16.60;10.02;;;;;;;;;;5066583;28;20388;-69
2021/04/20 08:04:11;;;;;;;16.13;9.38;;;;;;;;;;5066797;28;20033;-68
2021/04/20 08:07:42;;;;;;;17.00;11.20;;;;;;;;;;5110257;27;20350;-69
2021/04/20 08:12:19;;;;;;;16.90;11.25;;;;;;;;;;5109978;27;20377;-67
2021/04/20 08:16:32;;;;;;;17.48;11.20;;;;;;;;;;5109879;27;20414;-67
2021/04/20 08:20:58;;;;;;;14.43;10.85;;;;;;;;;;5114900;27;20857;-69
2021/04/20 08:23:26;;;;;;;18.02;11.00;;;;;;;;;;5113053;28;20369;-69
2021/04/20 08:26:53;;;;;;;23.67;15.77;;;;;;;;;;5128906;27;20451;-69
2021/04/20 08:31:02;;;;;;;16.08;11.52;;;;;;;;;;5109780;27;20418;-68
2021/04/20 08:33:32;;;;;;;20.52;12.73;;;;;;;;;;5109897;28;20094;-67
2021/04/20 08:36:34;;;;;;;17.95;12.60;;;;;;;;;;5069187;28;20387;-68
2021/04/20 08:39:07;;;;;;;14.52;10.50;;;;;;;;;;5069788;28;20035;-70
2021/04/20 08:43:45;;;;;;;13.80;9.10;;;;;;;;;;5109893;27;20391;-69
2021/04/20 08:48:11;;;;;;;14.65;8.30;;;;;;;;;;5110140;27;20442;-67
2021/04/20 08:50:39;;;;;;;12.23;8.35;;;;;;;;;;5118076;28;20024;-69
2021/04/20 08:55:07;;;;;;;19.67;11.20;;;;;;;;;;5110069;27;20450;-67
2021/04/20 08:57:39;;;;;;;25.45;15.65;;;;;;;;;;5108161;28;20081;-69
2021/04/20 09:00:08;;;;;;;15.85;9.98;;;;;;;;;;5108628;28;20024;-68
2021/04/20 09:02:55;;;;;;;18.75;9.38;;;;;;;;;;5108702;28;20484;-68
2021/04/20 09:05:21;;;;;;;17.77;9.88;;;;;;;;;;5076114;28;20047;-68
2021/04/20 09:08:06;;;;;;;13.85;9.00;;;;;;;;;;5105595;28;20488;-68
2021/04/20 09:10:38;;;;;;;14.38;7.85;;;;;;;;;;5105270;28;20318;-67
2021/04/20 09:13:13;;;;;;;14.05;9.10;;;;;;;;;;5106474;28;20052;-67
2021/04/20 09:17:17;;;;;;;12.80;9.23;;;;;;;;;;5067671;28;20414;-69
2021/04/20 09:23:24;;;;;;;18.88;12.18;;;;;;;;;;5109167;27;20427;-68
2021/04/20 09:25:54;;;;;;;12.40;7.13;;;;;;;;;;5087028;28;20377;-67
2021/04/20 09:28:21;;;;;;;10.32;6.40;;;;;;;;;;5090590;28;20028;-67
2021/04/20 09:32:21;;;;;;;10.05;6.68;;;;;;;;;;5109650;27;20438;-66
2021/04/20 09:34:49;;;;;;;11.15;7.30;;;;;;;;;;5109851;28;20038;-68
2021/04/20 09:37:16;;;;;;;13.15;8.98;;;;;;;;;;5110122;28;20030;-67
2021/04/20 09:41:40;;;;;;;10.63;6.80;;;;;;;;;;5106479;27;20381;-71
2021/04/20 09:46:31;;;;;;;18.05;7.75;;;;;;;;;;5067809;27;20383;-68
2021/04/20 09:49:09;;;;;;;9.32;6.50;;;;;;;;;;5066953;28;20105;-69
2021/04/20 09:51:44;;;;;;;11.65;7.43;;;;;;;;;;5068060;28;20048;-69
2021/04/20 09:54:29;;;;;;;15.27;8.40;;;;;;;;;;5066086;28;20017;-68
2021/04/20 09:56:56;;;;;;;10.23;6.93;;;;;;;;;;5068717;28;20100;-67
2021/04/20 09:59:39;;;;;;;12.68;8.07;;;;;;;;;;5069031;28;20031;-68
2021/04/20 10:02:17;;;;;;;11.18;7.57;;;;;;;;;;5067366;28;20067;-68
2021/04/20 10:05:07;;;;;;;15.45;9.13;;;;;;;;;;5067970;28;20488;-67
2021/04/20 10:09:24;;;;;;;13.85;10.20;;;;;;;;;;5108365;27;20415;-66
2021/04/20 10:11:50;;;;;;;9.68;6.40;;;;;;;;;;5107062;28;20023;-67
2021/04/20 10:15:24;;;;;;;11.70;7.75;;;;;;;;;;5065724;28;20791;-68
2021/04/20 10:17:59;;;;;;;13.87;9.40;;;;;;;;;;5068405;28;20036;-67
2021/04/20 10:20:44;;;;;;;11.15;7.05;;;;;;;;;;5067862;28;20803;-67
2021/04/20 10:23:20;;;;;;;10.15;6.72;;;;;;;;;;5049490;28;20052;-67
2021/04/20 10:25:49;;;;;;;10.05;7.22;;;;;;;;;;5066372;28;20129;-67
2021/04/20 10:28:21;;;;;;;11.65;6.95;;;;;;;;;;5066956;28;20052;-68
2021/04/20 10:30:48;;;;;;;11.50;6.53;;;;;;;;;;5069160;28;20025;-68
2021/04/20 10:33:19;;;;;;;10.85;6.50;;;;;;;;;;5067111;28;20733;-68
2021/04/20 10:35:46;;;;;;;8.82;5.53;;;;;;;;;;5069030;28;20100;-68
2021/04/20 10:38:14;;;;;;;14.50;5.72;;;;;;;;;;5067058;28;20056;-68
2021/04/20 10:40:44;;;;;;;9.05;5.43;;;;;;;;;;5068543;28;20075;-68
2021/04/20 10:43:22;;;;;;;8.95;5.57;;;;;;;;;;5068490;28;20055;-68
2021/04/20 10:45:49;;;;;;;9.77;5.65;;;;;;;;;;5068908;28;20052;-68
2021/04/20 10:48:26;;;;;;;10.15;6.38;;;;;;;;;;5069109;28;20025;-67
2021/04/20 10:50:54;;;;;;;12.80;7.40;;;;;;;;;;5067150;28;20100;-68
2021/04/20 10:53:22;;;;;;;13.63;6.95;;;;;;;;;;5063203;28;20059;-68
2021/04/20 10:55:51;;;;;;;14.13;8.50;;;;;;;;;;5067001;28;20033;-69
2021/04/20 10:58:27;;;;;;;8.88;5.55;;;;;;;;;;5068229;28;20025;-68
2021/04/20 11:00:54;;;;;;;9.73;5.47;;;;;;;;;;5065290;28;20032;-68
2021/04/20 11:03:22;;;;;;;8.38;6.15;;;;;;;;;;5065054;28;20032;-68
2021/04/20 11:07:56;;;;;;;9.50;6.25;;;;;;;;;;5067813;28;20388;-66
2021/04/20 11:10:54;;;;;;;10.02;5.85;;;;;;;;;;5109060;27;20377;-67
2021/04/20 11:13:33;;;;;;;10.98;6.43;;;;;;;;;;5107809;28;20611;-67
2021/04/20 11:15:59;;;;;;;8.63;5.55;;;;;;;;;;5109206;28;20052;-66
2021/04/20 11:18:26;;;;;;;8.93;5.78;;;;;;;;;;5109320;28;20069;-68
2021/04/20 11:22:24;;;;;;;8.38;5.70;;;;;;;;;;5069498;28;20417;-68
2021/04/20 11:24:53;;;;;;;12.65;7.22;;;;;;;;;;5069542;28;20434;-67
2021/04/20 11:28:08;;;;;;;9.93;6.90;;;;;;;;;;5109466;27;20893;-67
2021/04/20 11:32:46;;;;;;;8.23;5.35;;;;;;;;;;5109587;27;20396;-67
2021/04/20 11:37:46;;;;;;;11.77;7.53;;;;;;;;;;5110130;27;20438;-67
2021/04/20 11:40:28;;;;;;;10.98;6.47;;;;;;;;;;5108451;28;20032;-68
2021/04/20 11:42:55;;;;;;;7.47;4.60;;;;;;;;;;5109854;28;20032;-68
2021/04/20 11:45:23;;;;;;;16.02;5.97;;;;;;;;;;5099929;28;20020;-67
2021/04/20 11:47:52;;;;;;;9.38;5.97;;;;;;;;;;5116722;28;20514;-67
2021/04/20 11:50:19;;;;;;;9.68;6.55;;;;;;;;;;5126733;28;20100;-67
2021/04/20 11:52:47;;;;;;;13.60;7.95;;;;;;;;;;5109418;28;20020;-66
2021/04/20 11:55:14;;;;;;;11.77;7.57;;;;;;;;;;5109014;28;20020;-69
2021/04/20 11:58:44;;;;;;;9.85;5.97;;;;;;;;;;5049290;28;20388;-66
2021/04/20 12:02:26;;;;;;;7.65;5.07;;;;;;;;;;5068197;28;20380;-65
2021/04/20 12:04:53;;;;;;;8.23;5.25;;;;;;;;;;5068158;28;20033;-65
2021/04/20 12:07:26;;;;;;;8.90;5.50;;;;;;;;;;5069652;28;20016;-65
2021/04/20 12:09:53;;;;;;;18.10;10.88;;;;;;;;;;5068785;28;20025;-65
2021/04/20 12:12:27;;;;;;;20.33;11.18;;;;;;;;;;5069047;28;20025;-65
2021/04/20 12:14:53;;;;;;;8.65;5.47;;;;;;;;;;5068992;28;20025;-65
2021/04/20 12:17:31;;;;;;;7.47;4.82;;;;;;;;;;5068784;28;20047;-65
2021/04/20 12:20:03;;;;;;;8.98;5.45;;;;;;;;;;5067785;28;20382;-65
2021/04/20 12:22:30;;;;;;;7.97;5.28;;;;;;;;;;5068146;28;20025;-65
2021/04/20 12:24:57;;;;;;;7.32;4.80;;;;;;;;;;5069141;28;20025;-66
2021/04/20 12:27:27;;;;;;;7.13;4.60;;;;;;;;;;5068992;28;20037;-65
2021/04/20 12:29:54;;;;;;;7.95;4.65;;;;;;;;;;5068603;28;20384;-65
2021/04/20 12:32:22;;;;;;;8.57;5.47;;;;;;;;;;5069011;28;20096;-65
2021/04/20 12:35:40;;;;;;;9.93;5.88;;;;;;;;;;5069091;28;20453;-64
2021/04/20 12:38:06;;;;;;;8.82;5.55;;;;;;;;;;5067957;28;20477;-66
2021/04/20 12:40:33;;;;;;;11.02;6.60;;;;;;;;;;5069538;28;20082;-64
2021/04/20 12:43:03;;;;;;;11.38;6.53;;;;;;;;;;5069060;28;20108;-64
2021/04/20 12:45:36;;;;;;;12.38;7.90;;;;;;;;;;5069601;28;20032;-64
2021/04/20 12:49:06;;;;;;;13.60;8.13;;;;;;;;;;5069785;28;20449;-66
2021/04/20 12:51:34;;;;;;;9.90;7.30;;;;;;;;;;5069117;28;20029;-66
2021/04/20 12:54:02;;;;;;;10.20;6.78;;;;;;;;;;5069541;28;20086;-66
2021/04/20 12:56:33;;;;;;;12.80;8.48;;;;;;;;;;5068259;28;20055;-66
2021/04/20 12:59:01;;;;;;;11.00;7.63;;;;;;;;;;5069141;28;20025;-66
2021/04/20 13:01:29;;;;;;;15.43;10.55;;;;;;;;;;5069392;28;20031;-65
2021/04/20 13:03:56;;;;;;;11.05;8.30;;;;;;;;;;5069128;28;20078;-65
2021/04/20 13:06:22;;;;;;;16.00;10.57;;;;;;;;;;5069542;28;20028;-64
2021/04/20 13:08:53;;;;;;;17.83;12.27;;;;;;;;;;5069346;28;20033;-65
2021/04/20 13:11:26;;;;;;;20.05;11.25;;;;;;;;;;5068836;28;20020;-65
2021/04/20 13:13:53;;;;;;;12.65;8.18;;;;;;;;;;5067895;28;20124;-64
2021/04/20 13:16:23;;;;;;;15.13;9.52;;;;;;;;;;5068875;28;20020;-64
2021/04/20 13:18:54;;;;;;;16.45;9.95;;;;;;;;;;5068698;28;20021;-64
2021/04/20 13:22:34;;;;;;;16.33;10.88;;;;;;;;;;5171929;27;20310;-64
2021/04/20 13:25:05;;;;;;;17.17;11.95;;;;;;;;;;5151089;27;20034;-64
2021/04/20 13:30:22;;;;;;;17.65;11.93;;;;;;;;;;5172115;27;20310;-66
2021/04/20 13:32:51;;;;;;;13.75;9.35;;;;;;;;;;5151043;27;20110;-66
2021/04/20 13:36:13;;;;;;;16.60;10.02;;;;;;;;;;5109098;27;20381;-67
2021/04/20 13:39:54;;;;;;;8.57;5.25;;;;;;;;;;5049481;28;20389;-63
2021/04/20 13:42:25;;;;;;;10.52;6.00;;;;;;;;;;5049810;28;20532;-66
2021/04/20 13:44:59;;;;;;;12.52;7.38;;;;;;;;;;5049927;28;20021;-65
2021/04/20 13:48:01;;;;;;;14.60;7.93;;;;;;;;;;5110353;27;20438;-65
2021/04/20 13:52:26;;;;;;;15.93;8.80;;;;;;;;;;5110343;27;20412;-66
2021/04/20 13:54:57;;;;;;;22.00;10.93;;;;;;;;;;5109076;28;20048;-66
2021/04/20 13:57:29;;;;;;;16.95;10.88;;;;;;;;;;5110159;28;20098;-67
2021/04/20 14:00:00;;;;;;;16.00;10.05;;;;;;;;;;5109821;28;20024;-65
2021/04/20 14:02:32;;;;;;;13.43;8.45;;;;;;;;;;5110239;28;20020;-64
2021/04/20 14:05:00;;;;;;;16.10;8.25;;;;;;;;;;5110262;28;20502;-64
2021/04/20 14:07:32;;;;;;;14.52;9.07;;;;;;;;;;5110116;28;20030;-64
2021/04/20 14:15:34;;;;;;;33.15;19.92;;;;;;;;;;5110011;27;20385;-67
2021/04/20 14:18:02;;;;;;;17.50;10.95;;;;;;;;;;5110393;28;20032;-66
2021/04/20 14:21:58;;;;;;;12.77;7.00;;;;;;;;;;5130445;27;20161;-65
2021/04/20 14:24:25;;;;;;;11.70;6.40;;;;;;;;;;5110449;28;20457;-64
2021/04/20 14:27:44;;;;;;;11.05;6.95;;;;;;;;;;5050028;28;20487;-65
2021/04/20 14:30:16;;;;;;;13.13;8.02;;;;;;;;;;5049501;28;20049;-64
2021/04/20 14:34:30;;;;;;;14.30;8.10;;;;;;;;;;5110251;27;20125;-65
2021/04/20 14:37:00;;;;;;;12.45;7.47;;;;;;;;;;5110191;28;20056;-65
2021/04/20 14:41:07;;;;;;;7.65;4.63;;;;;;;;;;5110366;27;20394;-65
2021/04/20 14:45:03;;;;;;;10.30;5.70;;;;;;;;;;5049823;28;20943;-64
2021/04/20 14:47:31;;;;;;;8.82;5.07;;;;;;;;;;5049967;28;20493;-65
2021/04/20 14:52:43;;;;;;;10.55;5.70;;;;;;;;;;5110448;27;20389;-66
2021/04/20 14:55:12;;;;;;;16.73;8.52;;;;;;;;;;5110397;28;20051;-65
2021/04/20 14:57:38;;;;;;;9.10;5.95;;;;;;;;;;5109985;28;20038;-66
2021/04/20 15:00:06;;;;;;;10.35;5.97;;;;;;;;;;5110308;28;20024;-65
2021/04/20 15:02:34;;;;;;;8.25;4.70;;;;;;;;;;5110162;28;20024;-66
2021/04/20 15:05:00;;;;;;;8.05;5.07;;;;;;;;;;5109826;28;20048;-65
2021/04/20 15:07:32;;;;;;;8.00;4.82;;;;;;;;;;5110422;28;20415;-66
2021/04/20 15:10:02;;;;;;;7.13;4.05;;;;;;;;;;5110373;28;20020;-66
2021/04/20 15:12:33;;;;;;;9.27;5.78;;;;;;;;;;5109589;28;20134;-65
2021/04/20 15:15:11;;;;;;;12.13;9.43;;;;;;;;;;5110066;28;20371;-65
2021/04/20 15:18:45;;;;;;;11.02;7.05;;;;;;;;;;5049390;28;20393;-67
2021/04/20 15:21:13;;;;;;;12.23;7.00;;;;;;;;;;5049828;28;20028;-67
2021/04/20 15:23:47;;;;;;;17.98;10.82;;;;;;;;;;5049808;28;20432;-66
2021/04/20 15:29:02;;;;;;;17.70;12.00;;;;;;;;;;5049998;28;20479;-66
2021/04/20 15:32:22;;;;;;;18.38;11.25;;;;;;;;;;5130561;27;20131;-66
2021/04/20 15:34:54;;;;;;;21.08;12.18;;;;;;;;;;5110459;28;20032;-66
2021/04/20 15:37:22;;;;;;;17.33;10.30;;;;;;;;;;5110416;28;20051;-67
2021/04/20 15:39:49;;;;;;;16.20;9.95;;;;;;;;;;5110063;28;20024;-66
2021/04/20 15:42:16;;;;;;;15.85;10.60;;;;;;;;;;5110267;28;20027;-67
2021/04/20 15:44:45;;;;;;;19.42;12.55;;;;;;;;;;5110198;28;20077;-66
2021/04/20 15:48:58;;;;;;;13.57;9.35;;;;;;;;;;5049878;28;20446;-67
2021/04/20 15:53:27;;;;;;;22.67;15.25;;;;;;;;;;5151040;27;20339;-64
2021/04/20 15:57:15;;;;;;;17.77;9.90;;;;;;;;;;5110259;27;20414;-65
2021/04/20 15:59:43;;;;;;;25.15;11.25;;;;;;;;;;5108619;28;20107;-65
2021/04/20 16:02:52;;;;;;;30.70;21.75;;;;;;;;;;5049736;28;20788;-64
2021/04/20 16:05:19;;;;;;;29.48;19.45;;;;;;;;;;5049900;28;20029;-65
2021/04/20 16:11:03;;;;;;;24.48;15.18;;;;;;;;;;5049693;28;20454;-67
2021/04/20 16:13:31;;;;;;;20.98;14.30;;;;;;;;;;5049743;28;20021;-67
2021/04/20 16:18:05;;;;;;;19.35;12.23;;;;;;;;;;5110164;27;20756;-65
2021/04/20 16:20:33;;;;;;;15.70;10.07;;;;;;;;;;5110343;28;20062;-65